sensor_id;sensor_type;location;lat;lon;timestamp;P1;durP1;ratioP1;P2;durP2;ratioP2
69822;SDS011;57119;52.516;13.508;2022-08-24T00:02:03;10.17;;;4.57;;
69822;SDS011;57119;52.516;13.508;2022-08-24T00:04:29;11.40;;;4.93;;
69822;SDS011;57119;52.516;13.508;2022-08-24T00:06:54;8.85;;;5.07;;
69822;SDS011;57119;52.516;13.508;2022-08-24T00:09:20;8.00;;;4.50;;
69822;SDS011;57119;52.516;13.508;2022-08-24T00:11:45;11.07;;;4.73;;
69822;SDS011;57119;52.516;13.508;2022-08-24T00:14:11;10.05;;;5.13;;
69822;SDS011;57119;52.516;13.508;2022-08-24T00:16:37;9.70;;;4.73;;
69822;SDS011;57119;52.516;13.508;2022-08-24T00:19:03;7.85;;;4.40;;
69822;SDS011;57119;52.516;13.508;2022-08-24T00:21:28;9.67;;;5.47;;
69822;SDS011;57119;52.516;13.508;2022-08-24T00:23:54;8.55;;;4.68;;
69822;SDS011;57119;52.516;13.508;2022-08-24T00:26:19;11.47;;;5.40;;
69822;SDS011;57119;52.516;13.508;2022-08-24T00:28:44;9.27;;;5.23;;
69822;SDS011;57119;52.516;13.508;2022-08-24T00:31:10;8.40;;;5.03;;
69822;SDS011;57119;52.516;13.508;2022-08-24T00:33:36;11.05;;;5.03;;
69822;SDS011;57119;52.516;13.508;2022-08-24T00:36:02;9.03;;;5.40;;
69822;SDS011;57119;52.516;13.508;2022-08-24T00:38:29;9.53;;;5.10;;
69822;SDS011;57119;52.516;13.508;2022-08-24T00:40:54;9.02;;;5.18;;
69822;SDS011;57119;52.516;13.508;2022-08-24T00:43:23;10.07;;;5.03;;
69822;SDS011;57119;52.516;13.508;2022-08-24T00:45:56;9.77;;;5.05;;
69822;SDS011;57119;52.516;13.508;2022-08-24T00:48:32;9.63;;;5.65;;
69822;SDS011;57119;52.516;13.508;2022-08-24T00:51:00;9.68;;;5.35;;
69822;SDS011;57119;52.516;13.508;2022-08-24T00:56:02;12.63;;;5.30;;
69822;SDS011;57119;52.516;13.508;2022-08-24T00:58:33;10.13;;;5.35;;
69822;SDS011;57119;52.516;13.508;2022-08-24T01:01:03;11.10;;;5.03;;
69822;SDS011;57119;52.516;13.508;2022-08-24T01:03:30;12.77;;;6.05;;
69822;SDS011;57119;52.516;13.508;2022-08-24T01:05:57;9.77;;;5.18;;
69822;SDS011;57119;52.516;13.508;2022-08-24T01:08:23;9.43;;;5.63;;
69822;SDS011;57119;52.516;13.508;2022-08-24T01:10:59;12.20;;;6.22;;
69822;SDS011;57119;52.516;13.508;2022-08-24T01:13:29;13.55;;;6.45;;
69822;SDS011;57119;52.516;13.508;2022-08-24T01:15:57;12.27;;;5.78;;
69822;SDS011;57119;52.516;13.508;2022-08-24T01:18:26;10.60;;;5.65;;
69822;SDS011;57119;52.516;13.508;2022-08-24T01:26:04;8.93;;;5.40;;
69822;SDS011;57119;52.516;13.508;2022-08-24T01:28:31;12.10;;;6.15;;
69822;SDS011;57119;52.516;13.508;2022-08-24T01:30:57;13.15;;;6.07;;
69822;SDS011;57119;52.516;13.508;2022-08-24T01:33:24;10.67;;;6.03;;
69822;SDS011;57119;52.516;13.508;2022-08-24T01:35:54;13.40;;;6.45;;
69822;SDS011;57119;52.516;13.508;2022-08-24T01:38:23;14.32;;;8.02;;
69822;SDS011;57119;52.516;13.508;2022-08-24T01:40:51;18.10;;;8.33;;
69822;SDS011;57119;52.516;13.508;2022-08-24T01:43:18;19.85;;;9.27;;
69822;SDS011;57119;52.516;13.508;2022-08-24T01:45:44;21.73;;;11.13;;
69822;SDS011;57119;52.516;13.508;2022-08-24T01:48:09;26.55;;;11.13;;
69822;SDS011;57119;52.516;13.508;2022-08-24T01:50:35;28.20;;;12.00;;
69822;SDS011;57119;52.516;13.508;2022-08-24T01:53:02;31.30;;;12.75;;
69822;SDS011;57119;52.516;13.508;2022-08-24T01:55:29;32.65;;;12.23;;
69822;SDS011;57119;52.516;13.508;2022-08-24T01:57:54;32.33;;;13.43;;
69822;SDS011;57119;52.516;13.508;2022-08-24T02:00:20;34.33;;;12.63;;
69822;SDS011;57119;52.516;13.508;2022-08-24T02:02:46;35.67;;;13.97;;
69822;SDS011;57119;52.516;13.508;2022-08-24T02:05:12;39.83;;;13.65;;
69822;SDS011;57119;52.516;13.508;2022-08-24T02:07:39;41.87;;;15.30;;
69822;SDS011;57119;52.516;13.508;2022-08-24T02:10:06;41.88;;;16.25;;
69822;SDS011;57119;52.516;13.508;2022-08-24T02:12:34;37.67;;;14.57;;
69822;SDS011;57119;52.516;13.508;2022-08-24T02:15:01;40.13;;;14.23;;
69822;SDS011;57119;52.516;13.508;2022-08-24T02:17:27;39.03;;;14.32;;
69822;SDS011;57119;52.516;13.508;2022-08-24T02:19:53;39.43;;;15.53;;
69822;SDS011;57119;52.516;13.508;2022-08-24T02:22:18;41.43;;;15.47;;
69822;SDS011;57119;52.516;13.508;2022-08-24T02:24:43;37.97;;;14.67;;
69822;SDS011;57119;52.516;13.508;2022-08-24T02:27:09;32.77;;;14.83;;
69822;SDS011;57119;52.516;13.508;2022-08-24T02:29:34;37.67;;;15.25;;
69822;SDS011;57119;52.516;13.508;2022-08-24T02:32:00;36.80;;;14.97;;
69822;SDS011;57119;52.516;13.508;2022-08-24T02:34:25;39.33;;;15.30;;
69822;SDS011;57119;52.516;13.508;2022-08-24T02:36:51;39.53;;;15.07;;
69822;SDS011;57119;52.516;13.508;2022-08-24T02:39:18;34.97;;;13.93;;
69822;SDS011;57119;52.516;13.508;2022-08-24T02:41:43;36.65;;;14.52;;
69822;SDS011;57119;52.516;13.508;2022-08-24T02:44:09;30.08;;;14.85;;
69822;SDS011;57119;52.516;13.508;2022-08-24T02:46:35;34.27;;;15.10;;
69822;SDS011;57119;52.516;13.508;2022-08-24T02:49:00;34.57;;;14.03;;
69822;SDS011;57119;52.516;13.508;2022-08-24T02:51:30;30.85;;;13.43;;
69822;SDS011;57119;52.516;13.508;2022-08-24T02:53:57;28.98;;;13.48;;
69822;SDS011;57119;52.516;13.508;2022-08-24T02:56:24;33.30;;;13.40;;
69822;SDS011;57119;52.516;13.508;2022-08-24T02:58:50;28.27;;;12.37;;
69822;SDS011;57119;52.516;13.508;2022-08-24T03:01:16;33.63;;;14.15;;
69822;SDS011;57119;52.516;13.508;2022-08-24T03:03:42;28.23;;;12.83;;
69822;SDS011;57119;52.516;13.508;2022-08-24T03:06:08;32.83;;;13.52;;
69822;SDS011;57119;52.516;13.508;2022-08-24T03:08:34;32.13;;;13.73;;
69822;SDS011;57119;52.516;13.508;2022-08-24T03:11:00;33.42;;;12.63;;
69822;SDS011;57119;52.516;13.508;2022-08-24T03:13:27;29.77;;;13.17;;
69822;SDS011;57119;52.516;13.508;2022-08-24T03:15:53;31.95;;;13.77;;
69822;SDS011;57119;52.516;13.508;2022-08-24T03:18:19;32.28;;;14.10;;
69822;SDS011;57119;52.516;13.508;2022-08-24T03:20:45;33.45;;;13.95;;
69822;SDS011;57119;52.516;13.508;2022-08-24T03:23:11;33.10;;;15.03;;
69822;SDS011;57119;52.516;13.508;2022-08-24T03:25:36;37.40;;;14.90;;
69822;SDS011;57119;52.516;13.508;2022-08-24T03:28:02;31.15;;;14.75;;
69822;SDS011;57119;52.516;13.508;2022-08-24T03:30:27;33.97;;;14.43;;
69822;SDS011;57119;52.516;13.508;2022-08-24T03:32:53;31.60;;;13.83;;
69822;SDS011;57119;52.516;13.508;2022-08-24T03:35:18;35.05;;;14.18;;
69822;SDS011;57119;52.516;13.508;2022-08-24T03:37:46;36.03;;;15.07;;
69822;SDS011;57119;52.516;13.508;2022-08-24T03:40:12;33.23;;;14.47;;
69822;SDS011;57119;52.516;13.508;2022-08-24T03:42:37;31.15;;;14.32;;
69822;SDS011;57119;52.516;13.508;2022-08-24T03:45:04;34.17;;;14.03;;
69822;SDS011;57119;52.516;13.508;2022-08-24T03:47:30;33.30;;;15.50;;
69822;SDS011;57119;52.516;13.508;2022-08-24T03:49:55;33.50;;;14.40;;
69822;SDS011;57119;52.516;13.508;2022-08-24T03:52:21;31.08;;;15.18;;
69822;SDS011;57119;52.516;13.508;2022-08-24T03:54:47;32.40;;;14.90;;
69822;SDS011;57119;52.516;13.508;2022-08-24T03:57:12;33.97;;;14.77;;
69822;SDS011;57119;52.516;13.508;2022-08-24T03:59:38;32.50;;;15.53;;
69822;SDS011;57119;52.516;13.508;2022-08-24T04:02:03;35.95;;;15.23;;
69822;SDS011;57119;52.516;13.508;2022-08-24T04:04:29;33.33;;;14.47;;
69822;SDS011;57119;52.516;13.508;2022-08-24T04:06:55;30.95;;;14.55;;
69822;SDS011;57119;52.516;13.508;2022-08-24T04:09:22;32.17;;;14.17;;
69822;SDS011;57119;52.516;13.508;2022-08-24T04:11:47;30.90;;;14.10;;
69822;SDS011;57119;52.516;13.508;2022-08-24T04:14:14;31.20;;;14.70;;
69822;SDS011;57119;52.516;13.508;2022-08-24T04:16:40;36.03;;;14.93;;
69822;SDS011;57119;52.516;13.508;2022-08-24T04:19:06;35.33;;;15.17;;
69822;SDS011;57119;52.516;13.508;2022-08-24T04:21:32;32.53;;;14.32;;
69822;SDS011;57119;52.516;13.508;2022-08-24T04:24:00;32.47;;;14.75;;
69822;SDS011;57119;52.516;13.508;2022-08-24T04:26:27;32.30;;;14.38;;
69822;SDS011;57119;52.516;13.508;2022-08-24T04:28:55;32.77;;;14.77;;
69822;SDS011;57119;52.516;13.508;2022-08-24T04:31:21;28.95;;;14.27;;
69822;SDS011;57119;52.516;13.508;2022-08-24T04:33:48;33.45;;;14.25;;
69822;SDS011;57119;52.516;13.508;2022-08-24T04:36:14;32.03;;;14.82;;
69822;SDS011;57119;52.516;13.508;2022-08-24T04:38:40;29.35;;;14.85;;
69822;SDS011;57119;52.516;13.508;2022-08-24T04:41:07;28.30;;;14.37;;
69822;SDS011;57119;52.516;13.508;2022-08-24T04:43:36;30.40;;;14.73;;
69822;SDS011;57119;52.516;13.508;2022-08-24T04:46:05;33.87;;;14.73;;
69822;SDS011;57119;52.516;13.508;2022-08-24T04:48:31;26.70;;;14.07;;
69822;SDS011;57119;52.516;13.508;2022-08-24T04:51:04;31.52;;;14.10;;
69822;SDS011;57119;52.516;13.508;2022-08-24T04:53:32;28.75;;;14.52;;
69822;SDS011;57119;52.516;13.508;2022-08-24T04:55:58;28.55;;;13.57;;
69822;SDS011;57119;52.516;13.508;2022-08-24T04:58:24;27.77;;;14.53;;
69822;SDS011;57119;52.516;13.508;2022-08-24T05:00:51;25.63;;;13.30;;
69822;SDS011;57119;52.516;13.508;2022-08-24T05:03:16;32.43;;;14.83;;
69822;SDS011;57119;52.516;13.508;2022-08-24T05:05:45;25.80;;;13.83;;
69822;SDS011;57119;52.516;13.508;2022-08-24T05:08:13;31.70;;;15.43;;
69822;SDS011;57119;52.516;13.508;2022-08-24T05:10:40;32.28;;;14.93;;
69822;SDS011;57119;52.516;13.508;2022-08-24T05:13:07;29.00;;;14.32;;
69822;SDS011;57119;52.516;13.508;2022-08-24T05:15:33;30.30;;;14.47;;
69822;SDS011;57119;52.516;13.508;2022-08-24T05:17:59;27.27;;;13.63;;
69822;SDS011;57119;52.516;13.508;2022-08-24T05:20:25;26.33;;;13.63;;
69822;SDS011;57119;52.516;13.508;2022-08-24T05:22:54;26.43;;;13.97;;
69822;SDS011;57119;52.516;13.508;2022-08-24T05:25:19;24.67;;;13.40;;
69822;SDS011;57119;52.516;13.508;2022-08-24T05:27:45;28.40;;;14.10;;
69822;SDS011;57119;52.516;13.508;2022-08-24T05:30:11;25.35;;;13.18;;
69822;SDS011;57119;52.516;13.508;2022-08-24T05:32:37;24.43;;;13.93;;
69822;SDS011;57119;52.516;13.508;2022-08-24T05:35:03;24.07;;;13.07;;
69822;SDS011;57119;52.516;13.508;2022-08-24T05:37:30;27.27;;;12.77;;
69822;SDS011;57119;52.516;13.508;2022-08-24T05:39:56;23.10;;;12.63;;
69822;SDS011;57119;52.516;13.508;2022-08-24T05:42:21;17.73;;;11.53;;
69822;SDS011;57119;52.516;13.508;2022-08-24T05:44:46;21.33;;;12.00;;
69822;SDS011;57119;52.516;13.508;2022-08-24T05:47:11;22.60;;;12.15;;
69822;SDS011;57119;52.516;13.508;2022-08-24T05:49:37;20.50;;;12.00;;
69822;SDS011;57119;52.516;13.508;2022-08-24T05:52:02;23.20;;;11.67;;
69822;SDS011;57119;52.516;13.508;2022-08-24T05:54:28;19.10;;;10.97;;
69822;SDS011;57119;52.516;13.508;2022-08-24T05:56:53;19.92;;;12.27;;
69822;SDS011;57119;52.516;13.508;2022-08-24T05:59:19;23.07;;;12.73;;
69822;SDS011;57119;52.516;13.508;2022-08-24T06:01:46;20.70;;;11.73;;
69822;SDS011;57119;52.516;13.508;2022-08-24T06:04:12;19.30;;;11.25;;
69822;SDS011;57119;52.516;13.508;2022-08-24T06:06:37;17.93;;;10.77;;
69822;SDS011;57119;52.516;13.508;2022-08-24T06:09:03;20.50;;;10.97;;
69822;SDS011;57119;52.516;13.508;2022-08-24T06:11:31;14.75;;;9.88;;
69822;SDS011;57119;52.516;13.508;2022-08-24T06:14:05;16.05;;;9.98;;
69822;SDS011;57119;52.516;13.508;2022-08-24T06:16:35;17.73;;;10.97;;
69822;SDS011;57119;52.516;13.508;2022-08-24T06:19:03;17.80;;;10.95;;
69822;SDS011;57119;52.516;13.508;2022-08-24T06:21:30;16.45;;;9.80;;
69822;SDS011;57119;52.516;13.508;2022-08-24T06:23:56;15.90;;;10.45;;
69822;SDS011;57119;52.516;13.508;2022-08-24T06:26:22;16.70;;;9.43;;
69822;SDS011;57119;52.516;13.508;2022-08-24T06:29:06;15.38;;;9.45;;
69822;SDS011;57119;52.516;13.508;2022-08-24T06:31:39;15.73;;;9.45;;
69822;SDS011;57119;52.516;13.508;2022-08-24T06:34:09;16.20;;;10.43;;
69822;SDS011;57119;52.516;13.508;2022-08-24T06:36:35;17.40;;;10.30;;
69822;SDS011;57119;52.516;13.508;2022-08-24T06:39:01;16.23;;;10.50;;
69822;SDS011;57119;52.516;13.508;2022-08-24T06:41:28;15.68;;;9.57;;
69822;SDS011;57119;52.516;13.508;2022-08-24T06:43:53;19.47;;;10.73;;
69822;SDS011;57119;52.516;13.508;2022-08-24T06:46:18;18.40;;;10.13;;
69822;SDS011;57119;52.516;13.508;2022-08-24T06:48:44;16.10;;;10.50;;
69822;SDS011;57119;52.516;13.508;2022-08-24T06:51:14;18.52;;;10.48;;
69822;SDS011;57119;52.516;13.508;2022-08-24T06:53:41;16.33;;;10.07;;
69822;SDS011;57119;52.516;13.508;2022-08-24T06:56:07;16.73;;;9.73;;
69822;SDS011;57119;52.516;13.508;2022-08-24T06:58:33;18.40;;;10.45;;
69822;SDS011;57119;52.516;13.508;2022-08-24T07:04:00;16.50;;;8.68;;
69822;SDS011;57119;52.516;13.508;2022-08-24T07:06:25;15.93;;;8.70;;
69822;SDS011;57119;52.516;13.508;2022-08-24T07:08:51;15.57;;;9.23;;
69822;SDS011;57119;52.516;13.508;2022-08-24T07:11:17;14.52;;;9.05;;
69822;SDS011;57119;52.516;13.508;2022-08-24T07:13:44;13.88;;;8.52;;
69822;SDS011;57119;52.516;13.508;2022-08-24T07:16:11;14.48;;;9.07;;
69822;SDS011;57119;52.516;13.508;2022-08-24T07:18:37;15.17;;;8.20;;
69822;SDS011;57119;52.516;13.508;2022-08-24T07:21:03;12.57;;;8.35;;
69822;SDS011;57119;52.516;13.508;2022-08-24T07:23:28;14.00;;;8.37;;
69822;SDS011;57119;52.516;13.508;2022-08-24T07:25:55;12.88;;;8.18;;
69822;SDS011;57119;52.516;13.508;2022-08-24T07:28:21;14.25;;;8.30;;
69822;SDS011;57119;52.516;13.508;2022-08-24T07:30:47;11.07;;;7.28;;
69822;SDS011;57119;52.516;13.508;2022-08-24T07:33:12;13.27;;;7.33;;
69822;SDS011;57119;52.516;13.508;2022-08-24T07:35:37;14.40;;;7.73;;
69822;SDS011;57119;52.516;13.508;2022-08-24T07:38:03;14.68;;;7.63;;
69822;SDS011;57119;52.516;13.508;2022-08-24T07:40:30;15.00;;;8.07;;
69822;SDS011;57119;52.516;13.508;2022-08-24T07:42:57;13.32;;;7.88;;
69822;SDS011;57119;52.516;13.508;2022-08-24T07:45:23;13.00;;;7.35;;
69822;SDS011;57119;52.516;13.508;2022-08-24T07:47:50;14.98;;;8.02;;
69822;SDS011;57119;52.516;13.508;2022-08-24T07:50:16;16.10;;;8.47;;
69822;SDS011;57119;52.516;13.508;2022-08-24T07:52:42;14.13;;;8.90;;
69822;SDS011;57119;52.516;13.508;2022-08-24T07:55:08;15.65;;;8.77;;
69822;SDS011;57119;52.516;13.508;2022-08-24T07:57:36;15.93;;;10.13;;
69822;SDS011;57119;52.516;13.508;2022-08-24T08:00:03;15.77;;;9.40;;
69822;SDS011;57119;52.516;13.508;2022-08-24T08:02:31;16.63;;;10.13;;
69822;SDS011;57119;52.516;13.508;2022-08-24T08:04:57;19.77;;;10.60;;
69822;SDS011;57119;52.516;13.508;2022-08-24T08:07:23;16.13;;;9.65;;
69822;SDS011;57119;52.516;13.508;2022-08-24T08:09:48;14.87;;;9.20;;
69822;SDS011;57119;52.516;13.508;2022-08-24T08:12:14;15.77;;;9.37;;
69822;SDS011;57119;52.516;13.508;2022-08-24T08:14:39;13.70;;;9.48;;
69822;SDS011;57119;52.516;13.508;2022-08-24T08:17:05;16.43;;;8.90;;
69822;SDS011;57119;52.516;13.508;2022-08-24T08:19:31;14.02;;;9.00;;
69822;SDS011;57119;52.516;13.508;2022-08-24T08:21:57;15.30;;;8.30;;
69822;SDS011;57119;52.516;13.508;2022-08-24T08:24:41;12.88;;;8.77;;
69822;SDS011;57119;52.516;13.508;2022-08-24T08:27:08;12.73;;;8.30;;
69822;SDS011;57119;52.516;13.508;2022-08-24T08:29:34;13.90;;;9.40;;
69822;SDS011;57119;52.516;13.508;2022-08-24T08:32:03;12.77;;;8.15;;
69822;SDS011;57119;52.516;13.508;2022-08-24T08:34:28;13.57;;;7.70;;
69822;SDS011;57119;52.516;13.508;2022-08-24T08:36:55;12.43;;;7.30;;
69822;SDS011;57119;52.516;13.508;2022-08-24T08:39:21;14.75;;;8.27;;
69822;SDS011;57119;52.516;13.508;2022-08-24T08:41:52;12.77;;;7.40;;
69822;SDS011;57119;52.516;13.508;2022-08-24T08:47:04;14.70;;;8.68;;
69822;SDS011;57119;52.516;13.508;2022-08-24T08:55:00;14.10;;;8.57;;
69822;SDS011;57119;52.516;13.508;2022-08-24T08:57:51;15.90;;;8.90;;
69822;SDS011;57119;52.516;13.508;2022-08-24T09:00:47;17.10;;;9.57;;
69822;SDS011;57119;52.516;13.508;2022-08-24T09:13:59;18.48;;;10.98;;
69822;SDS011;57119;52.516;13.508;2022-08-24T09:19:39;17.25;;;10.63;;
69822;SDS011;57119;52.516;13.508;2022-08-24T09:22:15;21.00;;;12.47;;
69822;SDS011;57119;52.516;13.508;2022-08-24T09:27:22;21.60;;;12.35;;
69822;SDS011;57119;52.516;13.508;2022-08-24T09:32:56;21.85;;;12.50;;
69822;SDS011;57119;52.516;13.508;2022-08-24T09:35:30;23.00;;;12.67;;
69822;SDS011;57119;52.516;13.508;2022-08-24T09:53:36;20.52;;;11.90;;
69822;SDS011;57119;52.516;13.508;2022-08-24T10:01:39;21.73;;;10.25;;
69822;SDS011;57119;52.516;13.508;2022-08-24T10:24:33;15.90;;;10.48;;
69822;SDS011;57119;52.516;13.508;2022-08-24T10:29:59;14.73;;;10.55;;
69822;SDS011;57119;52.516;13.508;2022-08-24T10:44:59;15.68;;;9.05;;
69822;SDS011;57119;52.516;13.508;2022-08-24T10:47:28;14.07;;;9.07;;
69822;SDS011;57119;52.516;13.508;2022-08-24T10:55:44;13.57;;;9.13;;
69822;SDS011;57119;52.516;13.508;2022-08-24T10:58:35;14.25;;;9.73;;
69822;SDS011;57119;52.516;13.508;2022-08-24T11:01:57;15.27;;;9.60;;
69822;SDS011;57119;52.516;13.508;2022-08-24T11:04:11;14.90;;;9.83;;
69822;SDS011;57119;52.516;13.508;2022-08-24T11:09:54;13.50;;;9.77;;
69822;SDS011;57119;52.516;13.508;2022-08-24T11:12:30;14.52;;;10.77;;
69822;SDS011;57119;52.516;13.508;2022-08-24T11:14:59;14.27;;;10.38;;
69822;SDS011;57119;52.516;13.508;2022-08-24T11:17:28;12.47;;;10.07;;
69822;SDS011;57119;52.516;13.508;2022-08-24T11:19:55;17.10;;;8.82;;
69822;SDS011;57119;52.516;13.508;2022-08-24T11:25:24;13.07;;;8.68;;
69822;SDS011;57119;52.516;13.508;2022-08-24T11:27:55;11.85;;;9.07;;
69822;SDS011;57119;52.516;13.508;2022-08-24T11:30:25;11.57;;;9.17;;
69822;SDS011;57119;52.516;13.508;2022-08-24T11:32:54;13.33;;;10.23;;
69822;SDS011;57119;52.516;13.508;2022-08-24T11:37:51;15.70;;;9.68;;
69822;SDS011;57119;52.516;13.508;2022-08-24T11:40:21;13.43;;;9.13;;
69822;SDS011;57119;52.516;13.508;2022-08-24T11:43:11;14.65;;;8.35;;
69822;SDS011;57119;52.516;13.508;2022-08-24T11:51:18;14.53;;;7.53;;
69822;SDS011;57119;52.516;13.508;2022-08-24T11:59:46;12.37;;;7.37;;
69822;SDS011;57119;52.516;13.508;2022-08-24T12:05:11;11.80;;;8.52;;
69822;SDS011;57119;52.516;13.508;2022-08-24T12:16:28;13.65;;;9.55;;
69822;SDS011;57119;52.516;13.508;2022-08-24T12:19:01;15.90;;;8.40;;
69822;SDS011;57119;52.516;13.508;2022-08-24T12:21:28;16.00;;;7.78;;
69822;SDS011;57119;52.516;13.508;2022-08-24T12:24:07;10.30;;;6.90;;
69822;SDS011;57119;52.516;13.508;2022-08-24T12:26:50;9.03;;;6.83;;
69822;SDS011;57119;52.516;13.508;2022-08-24T12:29:30;10.15;;;6.60;;
69822;SDS011;57119;52.516;13.508;2022-08-24T12:32:17;13.80;;;7.65;;
69822;SDS011;57119;52.516;13.508;2022-08-24T12:34:49;14.88;;;7.68;;
69822;SDS011;57119;52.516;13.508;2022-08-24T12:37:36;11.70;;;8.13;;
69822;SDS011;57119;52.516;13.508;2022-08-24T12:40:13;14.87;;;7.77;;
69822;SDS011;57119;52.516;13.508;2022-08-24T12:43:00;13.40;;;8.20;;
69822;SDS011;57119;52.516;13.508;2022-08-24T12:45:29;11.68;;;7.65;;
69822;SDS011;57119;52.516;13.508;2022-08-24T12:53:19;10.85;;;9.07;;
69822;SDS011;57119;52.516;13.508;2022-08-24T13:01:56;12.93;;;8.18;;
69822;SDS011;57119;52.516;13.508;2022-08-24T13:06:58;13.07;;;9.93;;
69822;SDS011;57119;52.516;13.508;2022-08-24T13:09:30;10.95;;;9.20;;
69822;SDS011;57119;52.516;13.508;2022-08-24T13:11:59;11.40;;;8.57;;
69822;SDS011;57119;52.516;13.508;2022-08-24T13:33:17;13.33;;;6.13;;
69822;SDS011;57119;52.516;13.508;2022-08-24T13:41:29;10.93;;;5.50;;
69822;SDS011;57119;52.516;13.508;2022-08-24T13:49:27;13.30;;;8.43;;
69822;SDS011;57119;52.516;13.508;2022-08-24T13:55:12;13.05;;;8.32;;
69822;SDS011;57119;52.516;13.508;2022-08-24T13:58:02;15.00;;;7.70;;
69822;SDS011;57119;52.516;13.508;2022-08-24T14:06:02;12.93;;;8.50;;
69822;SDS011;57119;52.516;13.508;2022-08-24T14:14:05;12.80;;;6.85;;
69822;SDS011;57119;52.516;13.508;2022-08-24T14:16:44;10.60;;;6.80;;
69822;SDS011;57119;52.516;13.508;2022-08-24T14:22:39;15.55;;;6.78;;
69822;SDS011;57119;52.516;13.508;2022-08-24T14:25:31;12.07;;;6.00;;
69822;SDS011;57119;52.516;13.508;2022-08-24T14:40:31;14.10;;;7.32;;
69822;SDS011;57119;52.516;13.508;2022-08-24T14:43:13;14.15;;;7.68;;
69822;SDS011;57119;52.516;13.508;2022-08-24T14:56:58;9.52;;;5.90;;
69822;SDS011;57119;52.516;13.508;2022-08-24T14:59:47;10.90;;;6.27;;
69822;SDS011;57119;52.516;13.508;2022-08-24T15:07:57;12.43;;;5.65;;
69822;SDS011;57119;52.516;13.508;2022-08-24T15:16:20;10.40;;;4.83;;
69822;SDS011;57119;52.516;13.508;2022-08-24T15:26:57;9.83;;;6.30;;
69822;SDS011;57119;52.516;13.508;2022-08-24T15:29:31;12.25;;;6.13;;
69822;SDS011;57119;52.516;13.508;2022-08-24T15:34:43;10.27;;;6.47;;
69822;SDS011;57119;52.516;13.508;2022-08-24T15:37:26;12.80;;;6.65;;
69822;SDS011;57119;52.516;13.508;2022-08-24T15:39:57;11.82;;;6.00;;
69822;SDS011;57119;52.516;13.508;2022-08-24T15:42:24;9.52;;;5.75;;
69822;SDS011;57119;52.516;13.508;2022-08-24T15:44:51;7.57;;;5.03;;
69822;SDS011;57119;52.516;13.508;2022-08-24T15:47:18;11.07;;;6.50;;
69822;SDS011;57119;52.516;13.508;2022-08-24T15:52:36;10.68;;;6.90;;
69822;SDS011;57119;52.516;13.508;2022-08-24T15:55:26;10.05;;;6.68;;
69822;SDS011;57119;52.516;13.508;2022-08-24T15:57:55;10.73;;;6.17;;
69822;SDS011;57119;52.516;13.508;2022-08-24T16:00:42;7.70;;;5.88;;
69822;SDS011;57119;52.516;13.508;2022-08-24T16:03:41;9.80;;;5.82;;
69822;SDS011;57119;52.516;13.508;2022-08-24T16:16:49;11.38;;;5.63;;
69822;SDS011;57119;52.516;13.508;2022-08-24T16:19:19;12.85;;;6.50;;
69822;SDS011;57119;52.516;13.508;2022-08-24T16:21:56;9.00;;;6.70;;
69822;SDS011;57119;52.516;13.508;2022-08-24T16:27:00;9.55;;;5.85;;
69822;SDS011;57119;52.516;13.508;2022-08-24T16:37:32;9.17;;;5.80;;
69822;SDS011;57119;52.516;13.508;2022-08-24T16:39:57;9.10;;;6.63;;
69822;SDS011;57119;52.516;13.508;2022-08-24T16:42:24;8.47;;;5.57;;
69822;SDS011;57119;52.516;13.508;2022-08-24T16:44:52;9.20;;;5.57;;
69822;SDS011;57119;52.516;13.508;2022-08-24T16:47:18;10.35;;;5.70;;
69822;SDS011;57119;52.516;13.508;2022-08-24T16:49:45;10.97;;;5.73;;
69822;SDS011;57119;52.516;13.508;2022-08-24T16:52:11;7.82;;;4.72;;
69822;SDS011;57119;52.516;13.508;2022-08-24T16:54:36;7.95;;;5.50;;
69822;SDS011;57119;52.516;13.508;2022-08-24T16:57:10;8.57;;;5.20;;
69822;SDS011;57119;52.516;13.508;2022-08-24T16:59:38;12.18;;;5.45;;
69822;SDS011;57119;52.516;13.508;2022-08-24T17:02:06;8.65;;;5.22;;
69822;SDS011;57119;52.516;13.508;2022-08-24T17:04:32;10.02;;;5.53;;
69822;SDS011;57119;52.516;13.508;2022-08-24T17:06:57;10.53;;;5.30;;
69822;SDS011;57119;52.516;13.508;2022-08-24T17:09:23;9.63;;;5.60;;
69822;SDS011;57119;52.516;13.508;2022-08-24T17:11:49;10.10;;;6.07;;
69822;SDS011;57119;52.516;13.508;2022-08-24T17:14:14;9.47;;;5.60;;
69822;SDS011;57119;52.516;13.508;2022-08-24T17:16:40;12.50;;;5.88;;
69822;SDS011;57119;52.516;13.508;2022-08-24T17:19:11;11.20;;;5.70;;
69822;SDS011;57119;52.516;13.508;2022-08-24T17:21:38;9.50;;;5.50;;
69822;SDS011;57119;52.516;13.508;2022-08-24T17:24:04;10.10;;;5.43;;
69822;SDS011;57119;52.516;13.508;2022-08-24T17:26:31;10.43;;;5.45;;
69822;SDS011;57119;52.516;13.508;2022-08-24T17:28:57;8.70;;;5.13;;
69822;SDS011;57119;52.516;13.508;2022-08-24T17:31:23;8.53;;;5.03;;
69822;SDS011;57119;52.516;13.508;2022-08-24T17:33:49;9.40;;;5.35;;
69822;SDS011;57119;52.516;13.508;2022-08-24T17:36:16;9.35;;;4.95;;
69822;SDS011;57119;52.516;13.508;2022-08-24T17:38:43;11.63;;;5.10;;
69822;SDS011;57119;52.516;13.508;2022-08-24T17:41:11;16.88;;;5.60;;
69822;SDS011;57119;52.516;13.508;2022-08-24T17:43:37;10.95;;;5.22;;
69822;SDS011;57119;52.516;13.508;2022-08-24T17:46:03;9.73;;;5.20;;
69822;SDS011;57119;52.516;13.508;2022-08-24T17:48:28;11.30;;;5.93;;
69822;SDS011;57119;52.516;13.508;2022-08-24T17:50:53;15.23;;;5.70;;
69822;SDS011;57119;52.516;13.508;2022-08-24T17:53:18;13.20;;;5.50;;
69822;SDS011;57119;52.516;13.508;2022-08-24T17:55:44;9.80;;;4.60;;
69822;SDS011;57119;52.516;13.508;2022-08-24T17:58:10;11.18;;;4.88;;
69822;SDS011;57119;52.516;13.508;2022-08-24T18:00:36;10.20;;;4.50;;
69822;SDS011;57119;52.516;13.508;2022-08-24T18:03:02;10.17;;;5.20;;
69822;SDS011;57119;52.516;13.508;2022-08-24T18:05:28;13.48;;;4.72;;
69822;SDS011;57119;52.516;13.508;2022-08-24T18:07:55;8.95;;;4.60;;
69822;SDS011;57119;52.516;13.508;2022-08-24T18:10:23;8.50;;;4.70;;
69822;SDS011;57119;52.516;13.508;2022-08-24T18:12:49;10.80;;;4.90;;
69822;SDS011;57119;52.516;13.508;2022-08-24T18:15:15;10.05;;;4.75;;
69822;SDS011;57119;52.516;13.508;2022-08-24T18:17:44;10.50;;;5.10;;
69822;SDS011;57119;52.516;13.508;2022-08-24T18:20:12;9.50;;;4.97;;
69822;SDS011;57119;52.516;13.508;2022-08-24T18:22:38;10.77;;;5.57;;
69822;SDS011;57119;52.516;13.508;2022-08-24T18:25:11;12.95;;;5.35;;
69822;SDS011;57119;52.516;13.508;2022-08-24T18:27:39;9.55;;;5.07;;
69822;SDS011;57119;52.516;13.508;2022-08-24T18:30:18;11.77;;;5.22;;
69822;SDS011;57119;52.516;13.508;2022-08-24T18:32:45;11.30;;;5.28;;
69822;SDS011;57119;52.516;13.508;2022-08-24T18:35:11;8.63;;;5.50;;
69822;SDS011;57119;52.516;13.508;2022-08-24T18:37:36;10.87;;;6.03;;
69822;SDS011;57119;52.516;13.508;2022-08-24T18:40:03;11.48;;;6.40;;
69822;SDS011;57119;52.516;13.508;2022-08-24T18:42:29;10.38;;;6.10;;
69822;SDS011;57119;52.516;13.508;2022-08-24T18:44:55;11.93;;;5.97;;
69822;SDS011;57119;52.516;13.508;2022-08-24T18:47:21;9.38;;;5.45;;
69822;SDS011;57119;52.516;13.508;2022-08-24T18:49:46;10.77;;;6.57;;
69822;SDS011;57119;52.516;13.508;2022-08-24T18:52:12;10.83;;;6.67;;